createdAt,value
2023-03-08T00:00:47.646Z,1.50
2023-03-08T00:03:14.907Z,1.40
2023-03-08T00:05:42.097Z,1.42
2023-03-08T00:08:09.301Z,1.30
2023-03-08T00:10:36.477Z,1.63
2023-03-08T00:13:03.657Z,1.77
2023-03-08T00:15:32.156Z,1.50
2023-03-08T00:17:59.337Z,1.52
2023-03-08T00:20:26.507Z,1.70
2023-03-08T00:22:53.692Z,1.50
2023-03-08T00:25:20.873Z,1.77
2023-03-08T00:27:48.112Z,1.40
2023-03-08T00:30:15.475Z,1.45
2023-03-08T00:32:44.001Z,1.42
2023-03-08T00:35:11.229Z,1.50
2023-03-08T00:37:38.434Z,1.60
2023-03-08T00:40:06.525Z,1.70
2023-03-08T00:42:33.709Z,1.40
2023-03-08T00:45:00.894Z,1.60
2023-03-08T00:47:28.084Z,1.40
2023-03-08T00:49:56.585Z,1.90
2023-03-08T00:52:23.836Z,1.73
2023-03-08T00:54:51.028Z,1.50
2023-03-08T00:57:18.224Z,1.60
2023-03-08T00:59:45.409Z,1.70
2023-03-08T01:02:12.614Z,2.10
2023-03-08T01:04:39.785Z,1.67
2023-03-08T01:07:08.296Z,1.92
2023-03-08T01:09:35.466Z,1.70
2023-03-08T01:12:02.680Z,1.85
2023-03-08T01:14:30.301Z,2.05
2023-03-08T01:16:57.495Z,2.10
2023-03-08T01:19:24.681Z,2.15
2023-03-08T01:21:51.891Z,2.00
2023-03-08T01:24:21.333Z,2.13
2023-03-08T01:26:48.511Z,1.95
2023-03-08T01:29:15.693Z,2.20
2023-03-08T01:31:42.887Z,2.28
2023-03-08T01:34:10.310Z,2.15
2023-03-08T01:36:37.636Z,2.17
2023-03-08T01:39:05.006Z,2.33
2023-03-08T01:41:33.534Z,2.20
2023-03-08T01:44:00.834Z,2.40
2023-03-08T01:46:28.496Z,2.70
2023-03-08T01:48:56.865Z,2.35
2023-03-08T01:51:26.443Z,2.33
2023-03-08T01:53:53.676Z,2.50
2023-03-08T01:56:20.905Z,2.53
2023-03-08T01:58:49.791Z,2.55
2023-03-08T02:01:17.050Z,2.72
2023-03-08T02:03:44.646Z,2.50
2023-03-08T02:06:11.861Z,2.00
2023-03-08T02:08:39.071Z,2.10
2023-03-08T02:11:06.463Z,2.50
2023-03-08T02:13:33.672Z,2.22
2023-03-08T02:16:02.195Z,2.35
2023-03-08T02:18:29.404Z,2.28
2023-03-08T02:20:56.592Z,2.08
2023-03-08T02:23:25.542Z,2.25
2023-03-08T02:25:53.086Z,2.22
2023-03-08T02:28:20.632Z,2.08
2023-03-08T02:30:47.862Z,1.85
2023-03-08T02:33:15.079Z,2.08
2023-03-08T02:35:44.032Z,2.22
2023-03-08T02:38:11.330Z,2.10
2023-03-08T02:40:40.071Z,2.13
2023-03-08T02:43:07.394Z,1.63
2023-03-08T02:45:34.818Z,2.00
2023-03-08T02:48:02.142Z,1.98
2023-03-08T02:50:29.387Z,1.80
2023-03-08T02:52:56.632Z,1.73
2023-03-08T02:55:23.835Z,1.88
2023-03-08T02:57:52.369Z,1.90
2023-03-08T03:00:19.749Z,2.22
2023-03-08T03:02:47.115Z,1.75
2023-03-08T03:05:14.311Z,1.80
2023-03-08T03:07:41.823Z,1.90
2023-03-08T03:10:09.411Z,1.83
2023-03-08T03:12:36.628Z,1.77
2023-03-08T03:15:05.455Z,1.90
2023-03-08T03:17:32.768Z,1.83
2023-03-08T03:20:00.081Z,1.83
2023-03-08T03:22:27.319Z,1.77
2023-03-08T03:24:54.596Z,2.00
2023-03-08T03:27:21.858Z,2.20
2023-03-08T03:29:49.068Z,1.80
2023-03-08T03:32:17.641Z,1.70
2023-03-08T03:34:44.993Z,1.88
2023-03-08T03:37:12.205Z,2.00
2023-03-08T03:39:39.545Z,2.00
2023-03-08T03:42:06.967Z,1.90
2023-03-08T03:44:34.214Z,2.00
2023-03-08T03:47:01.497Z,1.80
2023-03-08T03:49:30.259Z,1.60
2023-03-08T03:51:57.453Z,1.85
2023-03-08T03:54:24.774Z,1.73
2023-03-08T03:56:52.018Z,1.65
2023-03-08T03:59:19.231Z,1.88
2023-03-08T04:01:46.473Z,1.70
2023-03-08T04:04:13.702Z,1.60
2023-03-08T04:06:42.298Z,1.83
2023-03-08T04:09:09.865Z,1.83
2023-03-08T04:11:37.590Z,1.55
2023-03-08T04:14:05.104Z,1.55
2023-03-08T04:16:32.781Z,1.80
2023-03-08T04:19:00.320Z,1.60
2023-03-08T04:21:27.636Z,1.70
2023-03-08T04:23:56.287Z,1.80
2023-03-08T04:26:23.493Z,1.65
2023-03-08T04:28:50.872Z,1.77
2023-03-08T04:31:18.845Z,1.92
2023-03-08T04:33:46.156Z,1.90
2023-03-08T04:36:13.842Z,1.70
2023-03-08T04:38:41.142Z,1.48
2023-03-08T04:41:11.954Z,1.88
2023-03-08T04:43:39.773Z,1.80
2023-03-08T04:46:06.990Z,1.80
2023-03-08T04:48:34.398Z,1.88
2023-03-08T04:51:02.398Z,1.60
2023-03-08T04:53:29.738Z,1.70
2023-03-08T04:55:57.031Z,1.60
2023-03-08T04:58:25.620Z,1.77
2023-03-08T05:00:52.836Z,1.80
2023-03-08T05:03:20.101Z,2.10
2023-03-08T05:05:47.905Z,2.20
2023-03-08T05:08:15.148Z,2.00
2023-03-08T05:10:47.455Z,2.45
2023-03-08T05:13:14.651Z,2.60
2023-03-08T05:15:43.267Z,2.80
2023-03-08T05:18:10.566Z,3.15
2023-03-08T05:20:37.967Z,2.90
2023-03-08T05:23:05.147Z,3.63
2023-03-08T05:25:33.069Z,3.30
2023-03-08T05:28:00.364Z,3.63
2023-03-08T05:30:27.585Z,3.10
2023-03-08T05:32:56.073Z,3.20
2023-03-08T05:35:23.245Z,3.28
2023-03-08T05:37:50.597Z,3.30
2023-03-08T05:40:18.000Z,2.88
2023-03-08T05:42:45.215Z,3.53
2023-03-08T05:45:12.590Z,3.08
2023-03-08T05:47:39.803Z,3.50
2023-03-08T05:50:08.781Z,3.42
2023-03-08T05:52:36.341Z,3.65
2023-03-08T05:55:03.601Z,3.78
2023-03-08T05:57:30.800Z,3.90
2023-03-08T05:59:58.023Z,3.67
2023-03-08T06:02:25.311Z,3.17
2023-03-08T06:04:52.583Z,3.97
2023-03-08T06:07:21.083Z,3.63
2023-03-08T06:09:48.296Z,3.88
2023-03-08T06:12:15.474Z,4.00
2023-03-08T06:14:42.688Z,4.03
2023-03-08T06:17:09.864Z,3.65
2023-03-08T06:19:37.057Z,3.78
2023-03-08T06:22:04.277Z,4.05
2023-03-08T06:24:32.825Z,4.40
2023-03-08T06:27:00.019Z,4.40
2023-03-08T06:29:27.275Z,4.47
2023-03-08T06:31:54.504Z,5.25
2023-03-08T06:34:21.768Z,4.97
2023-03-08T06:36:48.953Z,5.40
2023-03-08T06:39:16.234Z,5.00
2023-03-08T06:41:44.865Z,5.10
2023-03-08T06:44:12.099Z,4.88
2023-03-08T06:46:39.310Z,5.68
2023-03-08T06:49:07.676Z,5.55
2023-03-08T06:51:34.912Z,5.53
2023-03-08T06:54:02.171Z,5.60
2023-03-08T06:56:29.373Z,5.93
2023-03-08T06:58:57.898Z,5.82
2023-03-08T07:01:25.184Z,5.60
2023-03-08T07:03:53.318Z,5.47
2023-03-08T07:06:20.516Z,5.38
2023-03-08T07:08:47.826Z,6.57
2023-03-08T07:11:15.038Z,7.25
2023-03-08T07:13:43.089Z,7.78
2023-03-08T07:16:12.151Z,8.15
2023-03-08T07:18:39.456Z,7.57
2023-03-08T07:21:06.716Z,8.55
2023-03-08T07:23:33.952Z,9.10
2023-03-08T07:26:01.216Z,8.77
2023-03-08T07:28:28.396Z,9.68
2023-03-08T07:30:55.613Z,8.63
2023-03-08T07:33:24.133Z,9.50
2023-03-08T07:35:51.368Z,9.75
2023-03-08T07:38:18.619Z,10.63
2023-03-08T07:40:45.798Z,10.52
2023-03-08T07:43:13.009Z,10.02
2023-03-08T07:45:40.438Z,9.70
2023-03-08T07:48:07.749Z,9.77
2023-03-08T07:50:36.372Z,10.00
2023-03-08T07:53:04.341Z,9.43
2023-03-08T07:55:31.644Z,9.60
2023-03-08T07:57:58.862Z,9.98
2023-03-08T08:00:26.373Z,9.82
2023-03-08T08:02:54.374Z,9.63
2023-03-08T08:05:22.674Z,8.65
2023-03-08T08:07:51.197Z,9.68
2023-03-08T08:10:18.506Z,8.98
2023-03-08T08:12:45.728Z,8.57
2023-03-08T08:15:12.963Z,8.30
2023-03-08T08:17:40.170Z,8.77
2023-03-08T08:20:07.961Z,9.80
2023-03-08T08:22:35.749Z,8.25
2023-03-08T08:25:04.671Z,8.32
2023-03-08T08:27:31.852Z,9.30
2023-03-08T08:29:59.355Z,7.72
2023-03-08T08:32:26.746Z,8.20
2023-03-08T08:34:53.958Z,7.75
2023-03-08T08:37:21.169Z,7.70
2023-03-08T08:39:48.396Z,7.57
2023-03-08T08:42:16.874Z,7.60
2023-03-08T08:44:44.135Z,8.45
2023-03-08T08:47:11.311Z,7.75
2023-03-08T08:49:39.199Z,7.93
2023-03-08T08:52:06.469Z,7.93
2023-03-08T08:54:34.184Z,7.50
2023-03-08T08:57:01.435Z,7.70
2023-03-08T08:59:29.960Z,7.97
2023-03-08T09:01:57.155Z,8.00
2023-03-08T09:04:24.470Z,7.65
2023-03-08T09:06:53.299Z,7.40
2023-03-08T09:09:20.767Z,7.65
2023-03-08T09:11:54.633Z,8.13
2023-03-08T09:14:22.550Z,8.07
2023-03-08T09:16:52.284Z,7.43
2023-03-08T09:19:19.655Z,7.20
2023-03-08T09:21:46.898Z,7.60
2023-03-08T09:24:14.094Z,7.78
2023-03-08T09:26:41.301Z,6.93
2023-03-08T09:29:08.540Z,7.28
2023-03-08T09:31:36.296Z,7.05
2023-03-08T09:34:08.539Z,6.68
2023-03-08T09:36:36.571Z,6.80
2023-03-08T09:39:05.172Z,6.28
2023-03-08T09:41:42.459Z,6.60
2023-03-08T09:44:28.232Z,6.47
2023-03-08T09:46:56.079Z,5.57
2023-03-08T09:49:26.766Z,5.93
2023-03-08T09:51:54.846Z,5.82
2023-03-08T09:54:22.771Z,5.70
2023-03-08T09:56:50.517Z,5.63
2023-03-08T09:59:20.352Z,6.18
2023-03-08T10:01:49.338Z,6.05
2023-03-08T10:04:20.487Z,5.90
2023-03-08T10:06:51.257Z,5.90
2023-03-08T10:09:22.085Z,6.00
2023-03-08T10:11:50.248Z,5.72
2023-03-08T10:14:18.345Z,5.40
2023-03-08T10:16:46.491Z,5.40
2023-03-08T10:19:15.202Z,5.70
2023-03-08T10:21:42.661Z,6.13
2023-03-08T10:24:15.315Z,5.60
2023-03-08T10:26:42.782Z,5.43
2023-03-08T10:29:10.599Z,5.57
2023-03-08T10:31:37.897Z,5.20
2023-03-08T10:34:10.411Z,4.95
2023-03-08T10:36:46.806Z,4.95
2023-03-08T10:39:17.338Z,5.07
2023-03-08T10:41:45.507Z,4.15
2023-03-08T10:44:13.954Z,4.18
2023-03-08T10:46:46.308Z,3.92
2023-03-08T10:49:15.773Z,4.30
2023-03-08T10:51:51.960Z,3.78
2023-03-08T10:54:20.519Z,3.55
2023-03-08T10:56:51.749Z,3.70
2023-03-08T10:59:21.196Z,3.53
2023-03-08T11:01:48.955Z,2.35
2023-03-08T11:04:17.141Z,3.33
2023-03-08T11:06:44.345Z,3.25
2023-03-08T11:09:21.049Z,3.30
2023-03-08T11:11:48.313Z,3.10
2023-03-08T11:14:15.559Z,3.42
2023-03-08T11:16:57.697Z,3.58
2023-03-08T11:19:32.154Z,3.03
2023-03-08T11:22:03.460Z,3.28
2023-03-08T11:24:35.495Z,3.30
2023-03-08T11:27:06.290Z,3.65
2023-03-08T11:29:36.619Z,3.67
2023-03-08T11:32:05.497Z,3.20
2023-03-08T11:34:50.662Z,3.55
2023-03-08T11:37:20.125Z,3.25
2023-03-08T11:39:49.800Z,3.10
2023-03-08T11:42:19.385Z,2.88
2023-03-08T11:44:56.508Z,3.25
2023-03-08T11:47:38.236Z,2.60
2023-03-08T11:50:07.176Z,2.92
2023-03-08T11:52:37.655Z,2.83
2023-03-08T11:55:12.239Z,3.00
2023-03-08T11:57:39.935Z,2.70
2023-03-08T12:00:13.171Z,2.92
2023-03-08T12:02:41.180Z,2.88
2023-03-08T12:05:08.878Z,5.03
2023-03-08T12:07:37.801Z,7.03
2023-03-08T12:10:05.908Z,4.35
2023-03-08T12:12:36.049Z,5.63
2023-03-08T12:17:31.661Z,5.82
2023-03-08T12:19:59.035Z,4.85
2023-03-08T12:22:33.426Z,5.22
2023-03-08T12:25:02.125Z,5.28
2023-03-08T12:27:29.584Z,4.60
2023-03-08T12:29:59.272Z,5.10
2023-03-08T12:32:26.684Z,4.55
2023-03-08T12:35:00.913Z,4.68
2023-03-08T12:37:28.600Z,3.97
2023-03-08T12:39:56.692Z,4.63
2023-03-08T12:42:29.712Z,4.40
2023-03-08T12:45:07.013Z,4.40
2023-03-08T12:47:34.232Z,3.90
2023-03-08T12:50:08.662Z,3.45
2023-03-08T12:52:35.890Z,3.80
2023-03-08T12:55:05.806Z,3.75
2023-03-08T12:57:33.588Z,3.80
2023-03-08T13:00:01.706Z,3.38
2023-03-08T13:02:31.533Z,3.38
2023-03-08T13:05:02.782Z,2.75
2023-03-08T13:07:30.097Z,3.38
2023-03-08T13:09:58.999Z,3.45
2023-03-08T13:12:29.048Z,3.30
2023-03-08T13:15:00.265Z,3.10
2023-03-08T13:17:39.339Z,3.47
2023-03-08T13:20:11.925Z,3.30
2023-03-08T13:22:54.948Z,3.25
2023-03-08T13:25:28.041Z,3.03
2023-03-08T13:27:56.212Z,3.00
2023-03-08T13:30:24.541Z,3.17
2023-03-08T13:32:53.060Z,3.10
2023-03-08T13:35:20.255Z,3.00
2023-03-08T13:37:52.679Z,3.13
2023-03-08T13:40:20.411Z,3.05
2023-03-08T13:42:54.093Z,2.70
2023-03-08T13:45:21.386Z,2.90
2023-03-08T13:47:48.569Z,2.80
2023-03-08T13:50:20.048Z,2.35
2023-03-08T13:52:47.255Z,2.65
2023-03-08T13:55:16.790Z,2.70
2023-03-08T13:57:44.041Z,2.55
2023-03-08T14:00:22.227Z,2.72
2023-03-08T14:02:49.500Z,2.63
2023-03-08T14:05:16.944Z,2.60
2023-03-08T14:07:45.462Z,2.55
2023-03-08T14:10:13.535Z,1.90
2023-03-08T14:12:40.792Z,2.25
2023-03-08T14:15:08.398Z,2.50
2023-03-08T14:17:35.957Z,2.08
2023-03-08T14:20:05.037Z,1.85
2023-03-08T14:22:39.673Z,2.13
2023-03-08T14:25:18.679Z,2.70
2023-03-08T14:27:46.002Z,2.38
2023-03-08T14:30:14.234Z,2.20
2023-03-08T14:32:42.556Z,2.28
2023-03-08T14:35:16.320Z,2.72
2023-03-08T14:37:44.189Z,2.40
2023-03-08T14:40:26.183Z,2.50
2023-03-08T14:42:54.041Z,2.40
2023-03-08T14:45:22.277Z,2.42
2023-03-08T14:47:49.974Z,2.25
2023-03-08T14:50:20.413Z,2.28
2023-03-08T14:52:48.267Z,2.90
2023-03-08T14:55:23.318Z,2.80
2023-03-08T14:57:51.244Z,2.50
2023-03-08T15:00:18.813Z,2.22
2023-03-08T15:02:46.001Z,2.50
2023-03-08T15:05:14.254Z,2.50
2023-03-08T15:07:43.328Z,2.38
2023-03-08T15:10:14.119Z,2.28
2023-03-08T15:12:42.771Z,2.30
2023-03-08T15:15:11.809Z,2.10
2023-03-08T15:17:39.030Z,2.10
2023-03-08T15:22:29.225Z,2.08
2023-03-08T15:24:56.408Z,2.05
2023-03-08T15:27:23.618Z,2.10
2023-03-08T15:29:52.327Z,2.10
2023-03-08T15:32:19.715Z,2.00
2023-03-08T15:34:46.968Z,2.00
2023-03-08T15:37:14.583Z,2.47
2023-03-08T15:39:41.912Z,1.95
2023-03-08T15:42:09.149Z,2.15
2023-03-08T15:44:36.329Z,2.08
2023-03-08T15:47:05.022Z,2.08
2023-03-08T15:49:32.282Z,1.92
2023-03-08T15:51:59.473Z,2.13
2023-03-08T15:54:26.905Z,1.73
2023-03-08T15:56:54.780Z,1.80
2023-03-08T15:59:22.012Z,1.98
2023-03-08T16:01:49.252Z,1.88
2023-03-08T16:04:17.752Z,2.00
2023-03-08T16:06:44.967Z,2.30
2023-03-08T16:09:12.182Z,2.22
2023-03-08T16:11:39.385Z,1.83
2023-03-08T16:14:06.607Z,1.92
2023-03-08T16:16:44.922Z,1.90
2023-03-08T16:19:13.008Z,1.88
2023-03-08T16:21:41.531Z,1.90
2023-03-08T16:24:08.802Z,2.00
2023-03-08T16:26:36.010Z,2.45
2023-03-08T16:29:03.229Z,2.47
2023-03-08T16:31:33.133Z,2.65
2023-03-08T16:34:02.412Z,2.85
2023-03-08T16:36:29.787Z,3.10
2023-03-08T16:38:58.332Z,2.67
2023-03-08T16:41:26.209Z,3.03
2023-03-08T16:43:53.411Z,2.95
2023-03-08T16:46:20.971Z,2.85
2023-03-08T16:48:49.452Z,2.90
2023-03-08T16:51:16.916Z,2.92
2023-03-08T16:53:44.134Z,2.95
2023-03-08T16:56:18.619Z,3.03
2023-03-08T16:58:45.856Z,3.15
2023-03-08T17:01:13.100Z,2.85
2023-03-08T17:03:40.370Z,3.10
2023-03-08T17:06:07.810Z,2.80
2023-03-08T17:08:35.003Z,3.03
2023-03-08T17:11:03.549Z,3.17
2023-03-08T17:13:32.088Z,2.70
2023-03-08T17:15:59.409Z,3.00
2023-03-08T17:18:26.673Z,3.10
2023-03-08T17:20:53.875Z,3.50
2023-03-08T17:23:21.076Z,2.92
2023-03-08T17:25:48.286Z,3.10
2023-03-08T17:28:15.811Z,3.45
2023-03-08T17:30:44.362Z,3.22
2023-03-08T17:33:12.625Z,3.28
2023-03-08T17:35:40.165Z,3.33
2023-03-08T17:38:07.478Z,3.00
2023-03-08T17:40:34.645Z,3.38
2023-03-08T17:43:02.736Z,3.38
2023-03-08T17:45:30.081Z,3.72
2023-03-08T17:48:02.514Z,3.25
2023-03-08T17:50:30.849Z,3.20
2023-03-08T17:52:58.175Z,3.00
2023-03-08T17:55:25.466Z,3.17
2023-03-08T17:57:52.675Z,3.42
2023-03-08T18:00:20.486Z,3.15
2023-03-08T18:02:47.742Z,2.85
2023-03-08T18:05:16.243Z,2.90
2023-03-08T18:07:45.258Z,3.08
2023-03-08T18:10:12.566Z,3.30
2023-03-08T18:12:39.779Z,2.90
2023-03-08T18:15:07.742Z,2.83
2023-03-08T18:17:34.935Z,3.15
2023-03-08T18:20:05.169Z,2.88
2023-03-08T18:22:33.726Z,2.88
2023-03-08T18:25:00.904Z,3.00
2023-03-08T18:27:28.095Z,3.00
2023-03-08T18:29:55.289Z,3.15
2023-03-08T18:32:22.536Z,3.13
2023-03-08T18:34:49.743Z,2.95
2023-03-08T18:37:16.995Z,2.80
2023-03-08T18:39:45.490Z,2.78
2023-03-08T18:42:12.699Z,3.00
2023-03-08T18:44:39.880Z,2.95
2023-03-08T18:47:07.104Z,3.10
2023-03-08T18:49:34.345Z,3.08
2023-03-08T18:52:01.560Z,3.05
2023-03-08T18:54:28.765Z,3.17
2023-03-08T18:56:59.093Z,3.28
2023-03-08T18:59:26.510Z,3.38
2023-03-08T19:01:54.101Z,3.00
2023-03-08T19:04:21.329Z,3.28
2023-03-08T19:06:48.535Z,3.60
2023-03-08T19:09:16.060Z,3.40
2023-03-08T19:11:43.241Z,3.50
2023-03-08T19:14:11.853Z,3.40
2023-03-08T19:16:39.128Z,3.70
2023-03-08T19:19:06.706Z,4.07
2023-03-08T19:21:36.501Z,4.20
2023-03-08T19:24:03.771Z,4.07
2023-03-08T19:26:36.737Z,4.10
2023-03-08T19:29:04.656Z,3.88
2023-03-08T19:31:33.196Z,4.60
2023-03-08T19:34:01.119Z,4.32
2023-03-08T19:36:28.298Z,4.47
2023-03-08T19:38:55.851Z,4.07
2023-03-08T19:41:23.045Z,4.65
2023-03-08T19:43:50.237Z,4.82
2023-03-08T19:46:18.146Z,4.72
2023-03-08T19:48:46.701Z,5.03
2023-03-08T19:51:13.914Z,4.72
2023-03-08T19:53:41.193Z,4.63
2023-03-08T19:56:08.668Z,4.53
2023-03-08T19:58:35.863Z,4.53
2023-03-08T20:01:03.377Z,4.60
2023-03-08T20:03:30.635Z,5.60
2023-03-08T20:05:59.167Z,5.13
2023-03-08T20:08:26.430Z,5.10
2023-03-08T20:10:53.631Z,4.70
2023-03-08T20:13:20.870Z,5.22
2023-03-08T20:15:48.052Z,4.78
2023-03-08T20:18:15.244Z,4.82
2023-03-08T20:20:42.420Z,5.00
2023-03-08T20:23:11.073Z,5.00
2023-03-08T20:25:39.119Z,5.20
2023-03-08T20:28:06.333Z,5.28
2023-03-08T20:30:33.622Z,5.35
2023-03-08T20:33:00.804Z,5.18
2023-03-08T20:35:28.234Z,5.38
2023-03-08T20:37:55.430Z,5.05
2023-03-08T20:40:23.926Z,5.20
2023-03-08T20:42:51.117Z,5.07
2023-03-08T20:45:18.363Z,5.53
2023-03-08T20:47:46.499Z,5.47
2023-03-08T20:50:13.685Z,4.95
2023-03-08T20:52:40.866Z,5.07
2023-03-08T20:55:08.923Z,5.40
2023-03-08T20:57:37.422Z,5.32
2023-03-08T21:00:06.759Z,5.25
2023-03-08T21:02:33.992Z,5.13
2023-03-08T21:05:01.747Z,4.68
2023-03-08T21:07:29.326Z,5.32
2023-03-08T21:09:56.631Z,5.30
2023-03-08T21:12:23.802Z,5.45
2023-03-08T21:14:52.798Z,5.10
2023-03-08T21:17:21.820Z,5.13
2023-03-08T21:19:49.057Z,5.10
2023-03-08T21:22:16.289Z,5.35
2023-03-08T21:24:43.471Z,5.07
2023-03-08T21:27:10.722Z,5.68
2023-03-08T21:29:37.927Z,5.30
2023-03-08T21:32:06.560Z,5.00
2023-03-08T21:34:33.808Z,5.10
2023-03-08T21:37:00.976Z,5.50
2023-03-08T21:39:28.308Z,5.35
2023-03-08T21:41:56.896Z,5.40
2023-03-08T21:44:24.066Z,5.63
2023-03-08T21:46:52.273Z,5.78
2023-03-08T21:49:23.003Z,5.60
2023-03-08T21:51:50.253Z,5.13
2023-03-08T21:54:19.625Z,5.30
2023-03-08T21:56:46.999Z,4.55
2023-03-08T21:59:14.177Z,5.20
2023-03-08T22:01:42.867Z,5.65
2023-03-08T22:04:10.097Z,5.32
2023-03-08T22:06:38.614Z,5.00
2023-03-08T22:09:05.809Z,4.95
2023-03-08T22:11:33.279Z,4.97
2023-03-08T22:14:01.240Z,5.25
2023-03-08T22:16:28.668Z,5.60
2023-03-08T22:18:55.962Z,5.45
2023-03-08T22:21:23.199Z,5.28
2023-03-08T22:23:51.979Z,4.95
2023-03-08T22:26:19.163Z,5.63
2023-03-08T22:28:46.348Z,4.82
2023-03-08T22:31:14.162Z,5.68
2023-03-08T22:33:41.415Z,4.82
2023-03-08T22:36:09.377Z,4.72
2023-03-08T22:38:36.583Z,5.18
2023-03-08T22:41:08.484Z,5.43
2023-03-08T22:43:35.719Z,5.07
2023-03-08T22:46:06.350Z,4.88
2023-03-08T22:48:33.558Z,5.32
2023-03-08T22:51:10.270Z,5.03
2023-03-08T22:53:38.156Z,5.03
2023-03-08T22:56:07.272Z,5.05
2023-03-08T22:58:34.548Z,5.60
2023-03-08T23:01:01.720Z,5.38
2023-03-08T23:03:31.087Z,5.32
2023-03-08T23:05:58.321Z,5.00
2023-03-08T23:08:25.582Z,5.45
2023-03-08T23:10:52.757Z,4.88
2023-03-08T23:13:33.089Z,5.00
2023-03-08T23:16:01.301Z,4.68
2023-03-08T23:18:28.619Z,4.95
2023-03-08T23:20:55.851Z,4.95
2023-03-08T23:23:24.910Z,5.30
2023-03-08T23:25:52.472Z,5.43
2023-03-08T23:28:21.005Z,5.07
2023-03-08T23:30:48.204Z,5.30
2023-03-08T23:33:15.372Z,4.82
2023-03-08T23:35:42.601Z,5.50
2023-03-08T23:38:09.804Z,5.03
2023-03-08T23:40:38.664Z,5.07
2023-03-08T23:43:05.838Z,5.45
2023-03-08T23:45:34.376Z,5.03
2023-03-08T23:48:03.247Z,5.00
2023-03-08T23:50:30.798Z,4.57
2023-03-08T23:52:57.978Z,4.95
2023-03-08T23:55:25.172Z,4.72
2023-03-08T23:57:52.340Z,4.80
